Time;durP1;ratioP1;P1;durP2;ratioP2;P2;SDS_P1;SDS_P2;PMS_P1;PMS_P2;Temp;Humidity;BMP_temperature;BMP_pressure;BME280_temperature;BME280_humidity;BME280_pressure;Samples;Min_cycle;Max_cycle;Signal;HPM_P1;HPM_P2
2022/07/16 00:03:47;;;;;;;1.00;0.80;;;18.80;52.90;;;;;;5040353;28;20040;-67
2022/07/16 00:06:13;;;;;;;0.80;0.80;;;18.80;53.00;;;;;;5046469;28;20029;-68
2022/07/16 00:08:38;;;;;;;2.05;0.82;;;18.80;53.10;;;;;;5045138;28;20047;-67
2022/07/16 00:11:04;;;;;;;0.93;0.70;;;18.80;53.20;;;;;;5047188;28;20025;-67
2022/07/16 00:13:30;;;;;;;1.08;0.80;;;18.90;53.30;;;;;;5044741;28;20033;-67
2022/07/16 00:15:55;;;;;;;4.32;2.92;;;18.90;53.50;;;;;;5047390;28;20017;-70
2022/07/16 00:21:06;;;;;;;2.33;1.20;;;18.90;53.70;;;;;;5048335;28;20044;-68
2022/07/16 00:23:31;;;;;;;1.20;1.00;;;18.90;53.90;;;;;;5049850;28;20037;-67
2022/07/16 00:25:57;;;;;;;1.10;0.98;;;18.80;54.10;;;;;;5046902;28;20033;-67
2022/07/16 00:28:22;;;;;;;1.35;0.98;;;18.80;54.30;;;;;;5048470;28;20021;-67
2022/07/16 00:30:48;;;;;;;1.08;0.98;;;18.90;54.30;;;;;;5049430;28;20056;-67
2022/07/16 00:33:13;;;;;;;1.20;1.10;;;18.90;54.20;;;;;;5047680;28;20163;-67
2022/07/16 00:35:39;;;;;;;2.08;1.10;;;18.90;54.40;;;;;;5049742;28;20041;-67
2022/07/16 00:38:07;;;;;;;2.63;1.27;;;19.00;54.30;;;;;;5048758;28;20025;-67
2022/07/16 00:40:32;;;;;;;1.60;1.08;;;19.00;54.50;;;;;;5049525;28;20617;-67
2022/07/16 00:42:59;;;;;;;1.85;1.15;;;19.00;54.70;;;;;;5049802;28;20020;-67
2022/07/16 00:45:25;;;;;;;2.42;1.15;;;19.00;54.70;;;;;;5050065;28;20395;-68
2022/07/16 00:47:50;;;;;;;2.33;1.00;;;19.00;54.60;;;;;;5050045;28;20273;-67
2022/07/16 00:50:16;;;;;;;1.48;1.08;;;19.00;54.60;;;;;;5050554;28;20025;-67
2022/07/16 00:52:42;;;;;;;2.40;1.20;;;19.10;54.50;;;;;;5044275;28;20017;-67
2022/07/16 00:55:08;;;;;;;1.30;1.10;;;19.10;54.50;;;;;;5041919;28;20033;-67
2022/07/16 00:57:33;;;;;;;2.83;1.20;;;19.10;54.50;;;;;;5045021;28;20029;-67
2022/07/16 00:59:59;;;;;;;2.25;1.20;;;19.10;54.70;;;;;;5031843;28;20028;-67
2022/07/16 01:02:24;;;;;;;1.95;1.30;;;19.10;54.80;;;;;;5038194;28;20584;-67
2022/07/16 01:04:50;;;;;;;1.45;1.10;;;19.10;54.90;;;;;;5030650;28;20052;-67
2022/07/16 01:07:17;;;;;;;0.95;0.90;;;19.10;55.00;;;;;;5046550;28;20127;-67
2022/07/16 01:09:43;;;;;;;2.55;1.02;;;19.10;55.00;;;;;;5033957;28;20095;-66
2022/07/16 01:12:09;;;;;;;1.98;1.15;;;19.10;55.00;;;;;;5033503;28;20024;-67
2022/07/16 01:14:35;;;;;;;2.05;1.25;;;19.10;55.20;;;;;;5051887;28;20029;-67
2022/07/16 01:17:01;;;;;;;1.83;1.30;;;19.10;55.30;;;;;;5049148;28;20480;-67
2022/07/16 01:19:27;;;;;;;1.20;1.10;;;19.10;55.60;;;;;;5035903;28;20503;-67
2022/07/16 01:21:52;;;;;;;2.22;1.27;;;19.10;55.90;;;;;;5032522;28;20549;-67
2022/07/16 01:24:18;;;;;;;1.63;1.20;;;19.10;56.00;;;;;;5033861;28;20037;-69
2022/07/16 01:26:43;;;;;;;1.30;1.20;;;19.10;56.10;;;;;;5050335;28;20025;-67
2022/07/16 01:29:09;;;;;;;1.70;1.20;;;19.00;56.50;;;;;;5050467;28;20032;-67
2022/07/16 01:31:34;;;;;;;1.42;1.00;;;19.00;56.60;;;;;;5045185;28;20030;-67
2022/07/16 01:37:01;;;;;;;2.83;1.17;;;19.00;56.80;;;;;;5050614;28;20040;-68
2022/07/16 01:39:28;;;;;;;1.73;1.23;;;19.00;56.80;;;;;;5050564;28;20028;-67
2022/07/16 01:41:56;;;;;;;1.88;0.90;;;19.10;56.80;;;;;;5045617;28;20076;-66
2022/07/16 01:44:24;;;;;;;2.50;1.38;;;19.10;56.80;;;;;;5041111;28;20048;-67
2022/07/16 01:46:51;;;;;;;1.63;1.23;;;19.10;57.00;;;;;;5044495;28;20025;-68
2022/07/16 01:49:16;;;;;;;1.50;1.20;;;19.00;57.10;;;;;;5030158;28;20112;-68
2022/07/16 01:51:42;;;;;;;1.75;1.02;;;19.10;57.20;;;;;;5032602;28;20150;-68
2022/07/16 01:54:08;;;;;;;1.55;1.10;;;19.10;57.20;;;;;;5044119;28;20017;-68
2022/07/16 01:56:33;;;;;;;1.95;1.00;;;19.10;57.20;;;;;;5047192;28;20148;-69
2022/07/16 01:58:59;;;;;;;1.23;1.00;;;19.10;57.30;;;;;;5044537;28;20021;-69
2022/07/16 02:01:24;;;;;;;2.53;1.27;;;19.10;57.30;;;;;;5049215;28;20021;-69
2022/07/16 02:03:50;;;;;;;3.50;1.50;;;19.10;57.30;;;;;;5029572;28;20083;-69
2022/07/16 02:06:15;;;;;;;2.20;1.30;;;19.10;57.60;;;;;;5030671;28;20069;-68
2022/07/16 02:08:41;;;;;;;1.70;1.27;;;19.00;57.80;;;;;;5041023;28;20033;-69
2022/07/16 02:11:07;;;;;;;2.72;1.30;;;19.00;58.00;;;;;;5030084;28;20025;-67
2022/07/16 02:13:33;;;;;;;2.13;1.13;;;19.00;58.20;;;;;;5045628;28;20025;-68
2022/07/16 02:15:58;;;;;;;4.80;1.40;;;19.00;58.30;;;;;;5049531;28;20013;-68
2022/07/16 02:18:24;;;;;;;1.27;1.10;;;19.00;58.60;;;;;;5044213;28;20033;-68
2022/07/16 02:20:49;;;;;;;1.30;1.17;;;19.00;58.60;;;;;;5030942;28;20419;-70
2022/07/16 02:23:15;;;;;;;1.85;1.20;;;18.90;58.60;;;;;;5043150;28;20033;-70
2022/07/16 02:25:41;;;;;;;1.50;1.20;;;19.00;58.80;;;;;;5051164;28;20043;-70
2022/07/16 02:28:06;;;;;;;2.28;1.23;;;19.00;58.60;;;;;;5039322;28;20095;-70
2022/07/16 02:30:38;;;;;;;1.77;1.20;;;19.00;58.80;;;;;;5031095;28;20096;-70
2022/07/16 02:33:04;;;;;;;2.00;1.38;;;19.00;58.90;;;;;;5035296;28;20100;-70
2022/07/16 02:35:30;;;;;;;2.65;1.40;;;19.00;59.00;;;;;;5045975;28;20117;-69
2022/07/16 02:37:57;;;;;;;1.73;1.30;;;18.90;59.00;;;;;;5032014;28;20512;-70
2022/07/16 02:40:22;;;;;;;2.67;1.42;;;19.00;59.10;;;;;;5030844;28;20037;-69
2022/07/16 02:42:48;;;;;;;1.60;1.30;;;19.00;59.10;;;;;;5036367;28;20021;-68
2022/07/16 02:45:13;;;;;;;2.13;1.45;;;19.00;59.10;;;;;;5049218;28;20540;-70
2022/07/16 02:47:39;;;;;;;2.40;1.10;;;19.00;59.10;;;;;;5046513;28;20036;-69
2022/07/16 02:50:06;;;;;;;2.67;1.65;;;18.90;59.30;;;;;;5030342;28;20029;-69
2022/07/16 02:52:32;;;;;;;2.85;1.70;;;18.90;59.70;;;;;;5040671;28;20039;-70
2022/07/16 02:54:57;;;;;;;2.17;1.20;;;18.90;60.10;;;;;;5048610;28;20037;-69
2022/07/16 02:57:23;;;;;;;3.30;1.55;;;18.80;60.00;;;;;;5047959;28;20025;-69
2022/07/16 02:59:48;;;;;;;2.92;1.67;;;18.80;60.00;;;;;;5044704;28;20506;-69
2022/07/16 03:02:14;;;;;;;2.28;1.60;;;18.80;60.10;;;;;;5048301;28;20094;-70
2022/07/16 03:04:39;;;;;;;3.28;1.67;;;18.80;60.20;;;;;;5031756;28;20519;-69
2022/07/16 03:07:05;;;;;;;3.10;1.42;;;18.80;60.40;;;;;;5036187;28;20017;-70
2022/07/16 03:09:31;;;;;;;3.03;1.67;;;18.80;60.60;;;;;;5042304;28;20043;-69
2022/07/16 03:11:56;;;;;;;3.05;1.65;;;18.70;60.60;;;;;;5050105;28;20025;-69
2022/07/16 03:14:22;;;;;;;2.38;1.30;;;18.70;60.80;;;;;;5045897;28;20029;-70
2022/07/16 03:16:48;;;;;;;2.97;1.70;;;18.70;60.90;;;;;;5049579;28;20088;-70
2022/07/16 03:19:14;;;;;;;2.78;1.70;;;18.70;61.30;;;;;;5039243;28;20075;-70
2022/07/16 03:21:39;;;;;;;2.95;1.52;;;18.60;61.40;;;;;;5048198;28;20410;-70
2022/07/16 03:24:05;;;;;;;2.00;1.50;;;18.60;61.50;;;;;;5042868;28;20585;-70
2022/07/16 03:26:31;;;;;;;2.53;1.65;;;18.60;61.50;;;;;;5029986;28;20059;-68
2022/07/16 03:28:56;;;;;;;3.47;2.00;;;18.60;61.80;;;;;;5038278;28;20502;-69
2022/07/16 03:31:22;;;;;;;3.05;2.00;;;18.50;62.20;;;;;;5047373;28;20029;-69
2022/07/16 03:33:47;;;;;;;3.15;1.58;;;18.50;62.30;;;;;;5048970;28;20021;-69
2022/07/16 03:36:13;;;;;;;2.08;1.60;;;18.50;62.40;;;;;;5049040;28;20029;-69
2022/07/16 03:41:23;;;;;;;2.58;1.73;;;18.60;62.20;;;;;;5030663;28;20041;-70
2022/07/16 03:43:49;;;;;;;2.22;1.60;;;18.50;63.00;;;;;;5030823;28;20033;-70
2022/07/16 03:46:14;;;;;;;2.60;2.00;;;18.60;62.50;;;;;;5030326;28;20040;-70
2022/07/16 03:48:41;;;;;;;2.33;1.40;;;18.50;62.70;;;;;;5034289;28;20031;-69
2022/07/16 03:51:06;;;;;;;3.13;1.80;;;18.50;63.20;;;;;;5047168;28;20032;-70
2022/07/16 03:53:33;;;;;;;1.95;1.55;;;18.50;62.80;;;;;;5046699;28;20036;-70
2022/07/16 03:55:59;;;;;;;2.97;1.70;;;18.50;62.70;;;;;;5051227;28;20017;-69
2022/07/16 03:58:26;;;;;;;2.58;1.67;;;18.50;62.90;;;;;;5052034;28;20537;-69
2022/07/16 04:00:52;;;;;;;1.95;1.55;;;18.50;62.90;;;;;;5042239;28;20448;-69
2022/07/16 04:03:17;;;;;;;3.40;1.90;;;18.50;63.10;;;;;;5033375;28;20029;-69
2022/07/16 04:05:43;;;;;;;3.03;1.92;;;18.50;63.20;;;;;;5038872;28;20034;-70
2022/07/16 04:08:08;;;;;;;2.35;1.60;;;18.50;63.30;;;;;;5033754;28;20508;-69
2022/07/16 04:10:34;;;;;;;2.33;1.75;;;18.50;63.40;;;;;;5042138;28;20026;-69
2022/07/16 04:13:00;;;;;;;2.75;1.77;;;18.50;63.50;;;;;;5036739;28;20494;-69
2022/07/16 04:15:25;;;;;;;2.22;1.75;;;18.50;63.80;;;;;;5051763;28;20032;-69
2022/07/16 04:17:51;;;;;;;2.75;1.80;;;18.50;63.80;;;;;;5049366;28;20029;-68
2022/07/16 04:20:16;;;;;;;2.35;1.67;;;18.50;63.90;;;;;;5044209;28;20021;-68
2022/07/16 04:22:42;;;;;;;2.25;1.63;;;18.50;64.10;;;;;;5052660;28;20472;-69
2022/07/16 04:25:08;;;;;;;5.35;2.30;;;18.40;64.70;;;;;;5043450;28;20032;-68
2022/07/16 04:27:33;;;;;;;4.07;2.03;;;18.30;65.80;;;;;;5051882;28;20082;-69
2022/07/16 04:29:59;;;;;;;2.38;1.80;;;18.20;66.70;;;;;;5044377;28;20064;-68
2022/07/16 04:32:24;;;;;;;3.47;1.92;;;18.10;67.30;;;;;;5051844;28;20064;-68
2022/07/16 04:34:50;;;;;;;2.45;1.60;;;18.10;68.20;;;;;;5047177;28;20091;-68
2022/07/16 04:37:15;;;;;;;2.65;1.70;;;18.00;68.40;;;;;;5052205;28;20086;-68
2022/07/16 04:39:41;;;;;;;2.17;1.60;;;17.90;68.80;;;;;;5045235;28;20036;-69
2022/07/16 04:42:06;;;;;;;2.00;1.50;;;17.90;69.50;;;;;;5033202;28;20574;-68
2022/07/16 04:44:32;;;;;;;2.05;1.70;;;17.90;69.60;;;;;;5036013;28;20454;-69
2022/07/16 04:46:57;;;;;;;2.60;1.70;;;17.90;69.80;;;;;;5051815;28;20033;-68
2022/07/16 04:49:23;;;;;;;1.88;1.52;;;17.90;69.90;;;;;;5050031;28;20024;-68
2022/07/16 04:51:48;;;;;;;2.97;1.73;;;18.00;69.90;;;;;;5048392;28;20369;-69
2022/07/16 04:54:14;;;;;;;3.15;1.92;;;18.00;70.10;;;;;;5053172;28;20048;-68
2022/07/16 04:56:39;;;;;;;2.15;1.80;;;18.00;70.30;;;;;;5040101;28;20773;-70
2022/07/16 04:59:05;;;;;;;3.55;1.67;;;18.10;70.30;;;;;;5034587;28;20037;-67
2022/07/16 05:01:31;;;;;;;2.90;1.80;;;18.10;70.30;;;;;;5043643;28;20049;-67
2022/07/16 05:03:56;;;;;;;2.83;2.10;;;18.10;70.40;;;;;;5033589;28;20022;-68
2022/07/16 05:06:22;;;;;;;2.10;1.75;;;18.20;70.60;;;;;;5033504;28;20037;-68
2022/07/16 05:08:48;;;;;;;2.88;1.92;;;18.10;70.60;;;;;;5034812;28;20025;-68
2022/07/16 05:11:13;;;;;;;2.47;1.77;;;18.20;70.70;;;;;;5037734;28;20105;-68
2022/07/16 05:13:39;;;;;;;2.65;1.70;;;18.30;70.90;;;;;;5049298;28;20499;-68
2022/07/16 05:16:04;;;;;;;2.00;1.70;;;18.40;70.50;;;;;;5047182;28;20052;-69
2022/07/16 05:18:30;;;;;;;2.58;2.13;;;18.80;70.50;;;;;;5035274;28;20025;-67
2022/07/16 05:20:56;;;;;;;2.97;2.10;;;19.80;68.60;;;;;;5035832;28;20120;-67
2022/07/16 05:23:21;;;;;;;3.38;2.30;;;20.70;66.20;;;;;;5031359;28;20033;-67
2022/07/16 05:25:47;;;;;;;2.60;1.90;;;21.10;64.40;;;;;;5041953;28;20029;-69
2022/07/16 05:28:12;;;;;;;5.32;2.70;;;21.50;63.60;;;;;;5044702;28;20025;-67
2022/07/16 05:30:38;;;;;;;3.58;2.10;;;22.10;62.50;;;;;;5038191;28;20075;-68
2022/07/16 05:33:03;;;;;;;3.28;2.10;;;22.60;61.40;;;;;;5043254;28;20075;-69
2022/07/16 05:35:29;;;;;;;4.50;2.20;;;23.10;60.10;;;;;;5050607;28;20104;-68
2022/07/16 05:37:55;;;;;;;2.80;1.85;;;23.40;59.20;;;;;;5036499;28;20033;-68
2022/07/16 05:40:21;;;;;;;3.60;2.10;;;23.90;58.30;;;;;;5045613;28;20079;-67
2022/07/16 05:42:47;;;;;;;3.50;2.13;;;24.30;57.40;;;;;;5042874;28;20425;-67
2022/07/16 05:45:12;;;;;;;2.55;2.00;;;24.60;56.70;;;;;;5033292;28;20033;-68
2022/07/16 05:47:38;;;;;;;2.00;1.70;;;24.80;56.30;;;;;;5047250;28;20028;-69
2022/07/16 05:50:04;;;;;;;2.92;1.67;;;25.00;55.70;;;;;;5048725;28;20032;-68
2022/07/16 05:52:30;;;;;;;2.13;1.67;;;25.20;55.40;;;;;;5047246;28;20102;-69
2022/07/16 05:54:55;;;;;;;2.25;1.80;;;25.40;55.30;;;;;;5050037;28;20056;-68
2022/07/16 05:57:21;;;;;;;2.15;1.60;;;25.30;55.10;;;;;;5046452;28;20033;-67
2022/07/16 05:59:47;;;;;;;3.38;1.80;;;25.30;55.30;;;;;;5042400;28;20033;-69
2022/07/16 06:02:12;;;;;;;2.80;1.65;;;25.60;55.20;;;;;;5036753;28;20041;-68
2022/07/16 06:04:38;;;;;;;1.60;1.50;;;25.80;54.80;;;;;;5046028;28;20029;-68
2022/07/16 06:07:03;;;;;;;1.75;1.48;;;26.00;54.20;;;;;;5044220;28;20024;-68
2022/07/16 06:09:29;;;;;;;1.65;1.15;;;25.80;54.20;;;;;;5045583;28;20065;-68
2022/07/16 06:11:54;;;;;;;2.15;1.20;;;25.90;54.30;;;;;;5030334;28;20486;-68
2022/07/16 06:14:20;;;;;;;1.73;1.20;;;26.00;54.20;;;;;;5043991;28;20036;-67
2022/07/16 06:16:45;;;;;;;1.58;1.10;;;25.90;54.30;;;;;;5049387;28;20024;-68
2022/07/16 06:19:11;;;;;;;2.40;1.48;;;25.80;54.30;;;;;;5040598;28;20025;-68
2022/07/16 06:21:37;;;;;;;1.08;0.90;;;25.10;55.00;;;;;;5043237;28;20033;-68
2022/07/16 06:24:02;;;;;;;3.90;1.10;;;24.00;56.70;;;;;;5041933;28;20586;-68
2022/07/16 06:26:28;;;;;;;2.15;0.90;;;23.40;58.50;;;;;;5044437;28;20065;-68
2022/07/16 06:28:54;;;;;;;4.22;1.23;;;23.00;59.30;;;;;;5048450;28;20104;-67
2022/07/16 06:31:20;;;;;;;1.90;1.00;;;23.20;59.80;;;;;;5046130;28;20029;-68
2022/07/16 06:33:46;;;;;;;1.70;1.00;;;23.20;59.60;;;;;;5047264;28;20049;-68
2022/07/16 06:36:11;;;;;;;3.20;1.02;;;23.00;59.70;;;;;;5047555;28;20080;-67
2022/07/16 06:38:37;;;;;;;2.25;0.90;;;22.60;59.80;;;;;;5047650;28;20029;-67
2022/07/16 06:41:03;;;;;;;2.70;1.00;;;22.50;60.00;;;;;;5041721;28;20036;-67
2022/07/16 06:43:28;;;;;;;2.55;0.80;;;22.30;60.40;;;;;;5040047;28;20048;-67
2022/07/16 06:45:54;;;;;;;2.70;1.10;;;22.10;60.70;;;;;;5042884;28;20041;-67
2022/07/16 06:48:19;;;;;;;4.20;1.20;;;22.00;60.70;;;;;;5046770;28;20025;-67
2022/07/16 06:50:45;;;;;;;1.67;0.90;;;21.80;60.60;;;;;;5038371;28;20067;-67
2022/07/16 06:53:10;;;;;;;1.73;0.80;;;21.80;60.80;;;;;;5038802;28;20494;-67
2022/07/16 06:55:36;;;;;;;5.80;1.20;;;21.90;60.90;;;;;;5045610;28;20022;-67
2022/07/16 06:58:02;;;;;;;2.28;1.00;;;22.00;61.00;;;;;;5051219;28;20519;-67
2022/07/16 07:00:28;;;;;;;3.20;1.00;;;22.00;60.30;;;;;;5050094;28;20106;-67
2022/07/16 07:02:54;;;;;;;2.08;0.75;;;22.10;60.10;;;;;;5046308;28;20033;-67
2022/07/16 07:05:19;;;;;;;1.60;0.73;;;22.20;59.90;;;;;;5043883;28;20026;-67
2022/07/16 07:07:45;;;;;;;2.15;0.80;;;22.30;59.30;;;;;;5045463;28;20028;-67
2022/07/16 07:10:11;;;;;;;2.15;1.00;;;22.50;58.90;;;;;;5048236;28;20420;-67
2022/07/16 07:12:36;;;;;;;2.22;0.90;;;22.60;57.90;;;;;;5046794;28;20490;-68
2022/07/16 07:15:04;;;;;;;1.58;0.80;;;22.40;55.50;;;;;;5042880;28;20125;-67
2022/07/16 07:17:29;;;;;;;1.98;0.82;;;22.30;55.00;;;;;;5041124;28;20036;-68
2022/07/16 07:19:55;;;;;;;2.10;0.77;;;22.10;55.00;;;;;;5044120;28;20112;-67
2022/07/16 07:22:20;;;;;;;3.00;1.02;;;22.10;54.60;;;;;;5042086;28;20036;-67
2022/07/16 07:24:46;;;;;;;2.38;0.70;;;22.00;54.60;;;;;;5048277;28;20109;-67
2022/07/16 07:27:11;;;;;;;2.92;0.90;;;22.20;54.60;;;;;;5043166;28;20496;-67
2022/07/16 07:29:37;;;;;;;2.38;1.00;;;22.30;54.40;;;;;;5044245;28;20025;-66
2022/07/16 07:32:03;;;;;;;2.15;0.90;;;22.40;53.90;;;;;;5046508;28;20086;-66
2022/07/16 07:34:29;;;;;;;1.50;0.80;;;22.50;52.80;;;;;;5051870;28;20033;-66
2022/07/16 07:36:55;;;;;;;3.38;0.80;;;22.50;53.00;;;;;;5046212;28;20044;-66
2022/07/16 07:39:20;;;;;;;2.05;0.93;;;22.60;52.60;;;;;;5051587;28;20021;-66
2022/07/16 07:41:46;;;;;;;1.95;0.93;;;22.50;52.20;;;;;;5057035;28;20033;-66
2022/07/16 07:44:11;;;;;;;3.25;1.00;;;22.50;52.20;;;;;;5047991;28;20036;-66
2022/07/16 07:46:37;;;;;;;2.17;0.80;;;22.70;52.20;;;;;;5042709;28;20077;-66
2022/07/16 07:49:03;;;;;;;2.05;0.75;;;22.80;51.70;;;;;;5054598;28;20021;-67
2022/07/16 07:51:28;;;;;;;1.10;0.70;;;22.90;51.50;;;;;;5043149;28;20048;-66
2022/07/16 07:53:54;;;;;;;2.70;1.05;;;23.00;51.20;;;;;;5040216;28;20029;-67
2022/07/16 07:56:19;;;;;;;1.27;0.70;;;22.90;50.50;;;;;;5043177;28;20109;-68
2022/07/16 07:58:45;;;;;;;1.77;0.90;;;22.80;50.40;;;;;;5047127;28;20033;-66
2022/07/16 08:01:10;;;;;;;2.25;0.90;;;22.80;50.40;;;;;;5042152;28;20032;-66
2022/07/16 08:03:36;;;;;;;1.38;0.70;;;22.80;49.90;;;;;;5045920;28;20037;-67
2022/07/16 08:06:02;;;;;;;2.33;0.88;;;22.80;49.60;;;;;;5044474;28;20563;-66
2022/07/16 08:08:27;;;;;;;2.03;0.90;;;22.70;49.80;;;;;;5044490;28;20032;-66
2022/07/16 08:10:53;;;;;;;1.75;0.90;;;22.70;49.90;;;;;;5039271;28;20029;-66
2022/07/16 08:13:18;;;;;;;2.50;1.00;;;22.70;49.80;;;;;;5042088;28;20021;-66
2022/07/16 08:15:44;;;;;;;2.42;0.88;;;22.40;49.30;;;;;;5046926;28;20025;-67
2022/07/16 08:18:10;;;;;;;2.47;0.75;;;22.40;49.80;;;;;;5046801;28;20039;-67
2022/07/16 08:20:35;;;;;;;1.75;0.88;;;22.40;49.70;;;;;;5043934;28;20021;-66
2022/07/16 08:23:02;;;;;;;1.83;0.80;;;22.20;49.40;;;;;;5039250;28;20094;-66
2022/07/16 08:25:45;;;;;;;1.55;0.70;;;22.00;50.00;;;;;;5039801;28;20400;-66
2022/07/16 08:28:13;;;;;;;1.83;0.85;;;22.00;50.50;;;;;;5044478;28;20029;-65
2022/07/16 08:30:39;;;;;;;2.08;0.80;;;22.20;50.40;;;;;;5048143;28;20416;-65
2022/07/16 08:33:04;;;;;;;2.25;0.98;;;22.20;50.40;;;;;;5047086;28;20016;-66
2022/07/16 08:35:30;;;;;;;1.70;0.75;;;22.20;50.30;;;;;;5048832;28;20035;-66
2022/07/16 08:37:56;;;;;;;2.65;0.80;;;22.30;50.30;;;;;;5047913;28;20082;-67
2022/07/16 08:40:23;;;;;;;2.20;0.80;;;22.30;50.10;;;;;;5044645;28;20043;-67
2022/07/16 08:42:49;;;;;;;2.50;1.00;;;22.30;50.00;;;;;;5045444;28;20174;-67
2022/07/16 08:45:18;;;;;;;2.80;0.80;;;22.30;49.70;;;;;;5043416;28;20021;-67
2022/07/16 08:47:44;;;;;;;2.05;0.80;;;22.40;49.50;;;;;;5050284;28;20646;-67
2022/07/16 08:50:15;;;;;;;2.20;0.75;;;22.40;49.20;;;;;;5052042;28;20092;-66
2022/07/16 08:52:50;;;;;;;2.60;0.80;;;22.50;48.10;;;;;;5049251;28;20077;-66
2022/07/16 08:55:16;;;;;;;1.00;0.70;;;22.40;47.20;;;;;;5051674;28;20017;-66
2022/07/16 08:57:41;;;;;;;2.90;0.80;;;22.30;46.60;;;;;;5051030;28;20098;-66
2022/07/16 09:00:12;;;;;;;1.42;0.73;;;22.20;46.80;;;;;;5049881;28;20063;-66
2022/07/16 09:02:39;;;;;;;1.55;0.70;;;22.30;46.70;;;;;;5048340;28;20135;-66
2022/07/16 09:05:04;;;;;;;1.08;0.70;;;22.30;46.40;;;;;;5050862;28;20016;-67
2022/07/16 09:07:30;;;;;;;1.40;0.80;;;22.40;46.10;;;;;;5051273;28;20050;-66
2022/07/16 09:09:56;;;;;;;1.45;0.82;;;22.50;46.00;;;;;;5050861;28;20475;-67
2022/07/16 09:12:42;;;;;;;1.25;0.60;;;22.60;45.80;;;;;;5046586;28;20051;-66
2022/07/16 09:15:30;;;;;;;1.02;0.70;;;22.70;45.30;;;;;;5050252;28;20096;-66
2022/07/16 09:18:11;;;;;;;1.58;0.68;;;22.90;45.10;;;;;;5046995;28;20033;-67
2022/07/16 09:20:58;;;;;;;1.02;0.60;;;23.00;44.70;;;;;;5047532;28;20025;-67
2022/07/16 09:23:25;;;;;;;1.38;0.70;;;23.10;43.90;;;;;;5042411;28;20021;-67
2022/07/16 09:25:59;;;;;;;1.40;0.60;;;23.20;44.00;;;;;;5050132;28;20029;-67
2022/07/16 09:28:36;;;;;;;1.00;0.60;;;23.20;43.90;;;;;;5050510;28;20029;-66
2022/07/16 09:31:02;;;;;;;1.05;0.68;;;23.20;43.70;;;;;;5046788;28;20056;-67
2022/07/16 09:33:28;;;;;;;2.20;0.80;;;23.10;43.70;;;;;;5046264;28;20441;-67
2022/07/16 09:36:08;;;;;;;3.50;0.80;;;23.00;43.70;;;;;;5047444;28;20025;-67
2022/07/16 09:38:48;;;;;;;1.73;0.40;;;23.10;43.50;;;;;;5046742;28;20442;-67
2022/07/16 09:41:14;;;;;;;1.60;0.60;;;23.20;43.30;;;;;;5048528;28;20029;-67
2022/07/16 09:43:42;;;;;;;1.02;0.55;;;23.30;42.80;;;;;;5047154;28;20134;-67
2022/07/16 09:46:08;;;;;;;2.67;0.75;;;23.40;42.90;;;;;;5044654;28;21061;-67
2022/07/16 09:48:36;;;;;;;1.35;0.50;;;23.40;42.60;;;;;;5043390;28;20155;-65
2022/07/16 09:51:21;;;;;;;1.50;0.60;;;23.10;41.90;;;;;;5049873;28;20101;-66
2022/07/16 09:53:48;;;;;;;1.25;0.63;;;22.90;42.40;;;;;;5044399;28;20032;-66
2022/07/16 09:56:16;;;;;;;2.20;0.63;;;22.90;42.30;;;;;;5049956;28;20028;-66
2022/07/16 09:58:48;;;;;;;2.10;0.65;;;23.20;42.40;;;;;;5042320;28;20029;-65
2022/07/16 10:01:15;;;;;;;1.55;0.70;;;23.20;41.60;;;;;;5046720;28;20021;-66
2022/07/16 10:03:41;;;;;;;1.40;0.73;;;23.20;41.70;;;;;;5047067;28;20044;-66
2022/07/16 10:06:08;;;;;;;2.33;0.88;;;23.40;41.80;;;;;;5044381;28;20025;-65
2022/07/16 10:08:34;;;;;;;1.48;0.57;;;23.50;40.50;;;;;;5042823;28;20112;-65
2022/07/16 10:11:00;;;;;;;1.70;0.63;;;23.50;40.70;;;;;;5049282;28;20118;-66
2022/07/16 10:13:27;;;;;;;2.10;0.60;;;23.60;41.30;;;;;;5046989;28;20794;-66
2022/07/16 10:15:53;;;;;;;1.98;0.70;;;23.70;41.40;;;;;;5049780;28;20048;-66
2022/07/16 10:18:39;;;;;;;2.03;0.63;;;23.70;41.20;;;;;;5048894;28;20025;-66
2022/07/16 10:21:08;;;;;;;1.90;0.60;;;23.70;41.10;;;;;;5046994;28;20035;-65
2022/07/16 10:23:34;;;;;;;2.83;0.73;;;23.70;41.20;;;;;;5049060;28;20025;-66
2022/07/16 10:26:04;;;;;;;2.15;0.63;;;23.80;41.30;;;;;;5049539;28;20198;-66
2022/07/16 10:28:40;;;;;;;1.33;0.60;;;23.90;41.10;;;;;;5047816;28;20043;-66
2022/07/16 10:31:40;;;;;;;1.45;0.60;;;23.80;40.90;;;;;;5048784;28;20030;-66
2022/07/16 10:34:15;;;;;;;4.20;0.70;;;23.80;41.10;;;;;;5041992;28;20373;-66
2022/07/16 10:36:47;;;;;;;1.60;0.60;;;23.80;40.80;;;;;;5047355;28;20024;-66
2022/07/16 10:39:16;;;;;;;2.17;0.77;;;23.80;40.40;;;;;;5042439;28;20025;-66
2022/07/16 10:41:50;;;;;;;2.15;0.52;;;23.90;40.30;;;;;;5049323;28;20028;-66
2022/07/16 10:44:17;;;;;;;2.00;0.60;;;23.90;40.60;;;;;;5047282;28;20033;-67
2022/07/16 10:46:57;;;;;;;2.72;0.70;;;23.80;40.70;;;;;;5048963;28;20052;-65
2022/07/16 10:49:24;;;;;;;3.50;0.80;;;23.60;40.70;;;;;;5043783;28;20030;-66
2022/07/16 10:52:06;;;;;;;1.48;0.80;;;23.50;40.60;;;;;;5048356;28;20085;-66
2022/07/16 10:54:39;;;;;;;2.22;0.60;;;23.70;40.40;;;;;;5046861;28;20051;-65
2022/07/16 10:57:12;;;;;;;2.35;0.73;;;23.70;40.50;;;;;;5047016;28;20013;-66
2022/07/16 10:59:40;;;;;;;1.20;0.60;;;23.70;40.90;;;;;;5046223;28;20269;-66
2022/07/16 11:02:08;;;;;;;2.00;0.63;;;23.80;40.70;;;;;;5047535;28;20013;-66
2022/07/16 11:04:35;;;;;;;3.45;0.70;;;23.70;40.40;;;;;;5045989;28;20078;-66
2022/07/16 11:07:04;;;;;;;2.40;0.70;;;23.60;40.70;;;;;;5047342;28;20426;-67
2022/07/16 11:09:32;;;;;;;1.65;0.60;;;23.70;41.00;;;;;;5046398;28;20049;-67
2022/07/16 11:12:18;;;;;;;1.63;0.60;;;23.90;40.80;;;;;;5041504;28;20021;-67
2022/07/16 11:14:47;;;;;;;2.03;0.70;;;24.00;40.70;;;;;;5046265;28;20017;-67
2022/07/16 11:17:13;;;;;;;2.17;0.70;;;23.90;40.30;;;;;;5047565;28;20016;-66
2022/07/16 11:19:41;;;;;;;2.90;0.73;;;23.80;40.60;;;;;;5040409;28;20022;-67
2022/07/16 11:22:07;;;;;;;1.67;0.50;;;23.90;40.80;;;;;;5046953;28;20665;-67
2022/07/16 11:24:33;;;;;;;1.80;0.68;;;24.10;40.80;;;;;;5043610;28;20029;-67
2022/07/16 11:27:01;;;;;;;1.83;0.60;;;24.30;40.10;;;;;;5047364;28;20025;-67
2022/07/16 11:29:28;;;;;;;2.13;0.70;;;24.30;40.30;;;;;;5043215;28;20021;-66
2022/07/16 11:31:55;;;;;;;1.10;0.60;;;24.30;40.40;;;;;;5048236;28;20128;-66
2022/07/16 11:34:22;;;;;;;1.23;0.68;;;24.40;40.50;;;;;;5047985;28;20463;-65
2022/07/16 11:36:51;;;;;;;2.65;0.80;;;24.60;40.70;;;;;;5048322;28;20025;-66
2022/07/16 11:39:19;;;;;;;1.45;0.68;;;24.70;40.10;;;;;;5046978;28;20019;-67
2022/07/16 11:41:48;;;;;;;2.20;0.75;;;24.90;39.80;;;;;;5047661;28;20033;-65
2022/07/16 11:44:16;;;;;;;2.15;0.80;;;25.00;38.90;;;;;;5048023;28;20530;-65
2022/07/16 11:46:47;;;;;;;1.00;0.50;;;25.10;38.60;;;;;;5045195;28;20095;-65
2022/07/16 11:49:21;;;;;;;1.38;0.63;;;25.20;38.20;;;;;;5046945;28;20021;-66
2022/07/16 11:51:47;;;;;;;1.92;0.60;;;25.00;38.10;;;;;;5044529;28;20017;-66
2022/07/16 11:54:13;;;;;;;2.13;0.70;;;25.00;38.60;;;;;;5047358;28;20032;-66
2022/07/16 11:56:40;;;;;;;1.15;0.55;;;25.10;38.40;;;;;;5044916;28;20037;-66
2022/07/16 11:59:26;;;;;;;2.42;0.68;;;25.20;38.20;;;;;;5046797;28;20044;-66
2022/07/16 12:02:07;;;;;;;1.27;0.65;;;25.40;38.10;;;;;;5041003;28;20041;-66
2022/07/16 12:04:38;;;;;;;2.45;0.70;;;25.40;38.00;;;;;;5042379;28;20033;-65
2022/07/16 12:07:06;;;;;;;1.77;0.88;;;25.40;37.60;;;;;;5047881;28;20062;-65
2022/07/16 12:09:38;;;;;;;2.38;0.50;;;25.30;37.70;;;;;;5047402;28;20017;-65
2022/07/16 12:12:16;;;;;;;1.38;0.55;;;25.10;38.10;;;;;;5044192;28;20016;-65
2022/07/16 12:14:52;;;;;;;1.60;0.55;;;25.30;38.40;;;;;;5045571;28;20029;-66
2022/07/16 12:17:31;;;;;;;1.45;0.73;;;25.40;38.20;;;;;;5048696;28;20017;-66
2022/07/16 12:20:13;;;;;;;2.13;0.60;;;25.60;38.10;;;;;;5051479;28;20475;-65
2022/07/16 12:22:50;;;;;;;0.70;0.50;;;25.40;37.20;;;;;;5048754;28;20029;-66
2022/07/16 12:25:40;;;;;;;1.05;0.50;;;25.70;37.60;;;;;;5049810;28;20032;-65
2022/07/16 12:28:06;;;;;;;2.78;0.90;;;25.70;37.30;;;;;;5051313;28;20021;-66
2022/07/16 12:30:55;;;;;;;1.58;0.57;;;25.70;37.40;;;;;;5051154;28;20044;-67
2022/07/16 12:33:27;;;;;;;1.90;0.82;;;26.00;37.40;;;;;;5048242;28;20053;-67
2022/07/16 12:35:55;;;;;;;2.55;0.70;;;26.20;37.00;;;;;;5048568;28;20033;-67
2022/07/16 12:38:40;;;;;;;2.25;0.60;;;26.00;36.60;;;;;;5051719;28;20036;-67
2022/07/16 12:41:09;;;;;;;1.95;0.60;;;25.80;36.70;;;;;;5046676;28;20033;-67
2022/07/16 12:43:34;;;;;;;1.30;0.55;;;25.50;36.70;;;;;;5051356;28;20025;-67
2022/07/16 12:46:01;;;;;;;1.48;0.80;;;25.20;36.70;;;;;;5046057;28;20050;-67
2022/07/16 12:48:30;;;;;;;1.45;0.60;;;25.00;37.10;;;;;;5051784;28;20025;-67
2022/07/16 12:50:56;;;;;;;0.63;0.50;;;25.10;37.30;;;;;;5048341;28;20025;-67
2022/07/16 12:53:22;;;;;;;1.92;0.75;;;25.40;37.20;;;;;;5049525;28;20031;-67
2022/07/16 12:58:53;;;;;;;2.25;0.70;;;26.00;36.60;;;;;;5051480;28;20044;-67
2022/07/16 13:01:20;;;;;;;1.63;0.57;;;26.10;36.10;;;;;;5044054;28;20060;-67
2022/07/16 13:03:47;;;;;;;2.08;0.50;;;26.10;35.60;;;;;;5042176;28;20066;-67